Time;durP1;ratioP1;P1;durP2;ratioP2;P2;SDS_P1;SDS_P2;PMS_P1;PMS_P2;Temp;Humidity;BMP_temperature;BMP_pressure;BME280_temperature;BME280_humidity;BME280_pressure;Samples;Min_cycle;Max_cycle;Signal;HPM_P1;HPM_P2
2024/01/20 00:01:14;;;;;;;5.05;3.92;;;;;;;;;;5022409;28;20022;-87
2024/01/20 00:03:39;;;;;;;4.68;2.80;;;;;;;;;;5023587;28;20033;-88
2024/01/20 00:06:05;;;;;;;5.30;3.30;;;;;;;;;;5020086;28;20029;-89
2024/01/20 00:08:31;;;;;;;14.70;4.07;;;;;;;;;;5020611;28;20033;-87
2024/01/20 00:10:56;;;;;;;5.75;3.42;;;;;;;;;;5023604;28;20029;-86
2024/01/20 00:13:21;;;;;;;5.32;3.13;;;;;;;;;;5020463;28;20434;-88
2024/01/20 00:15:47;;;;;;;4.88;4.10;;;;;;;;;;5022216;28;20065;-86
2024/01/20 00:18:12;;;;;;;4.15;3.67;;;;;;;;;;5019860;28;20026;-87
2024/01/20 00:20:38;;;;;;;3.17;2.13;;;;;;;;;;5020046;28;20029;-87
2024/01/20 00:23:03;;;;;;;10.38;4.40;;;;;;;;;;5021523;28;20424;-88
2024/01/20 00:25:28;;;;;;;5.65;3.63;;;;;;;;;;5020774;28;20029;-87
2024/01/20 00:27:54;;;;;;;4.70;2.78;;;;;;;;;;5018638;28;20419;-87
2024/01/20 00:30:19;;;;;;;4.63;3.65;;;;;;;;;;5018181;28;20080;-87
2024/01/20 00:32:45;;;;;;;7.55;4.13;;;;;;;;;;5016194;28;20022;-86
2024/01/20 00:35:10;;;;;;;8.60;4.95;;;;;;;;;;5016003;28;20048;-87
2024/01/20 00:37:37;;;;;;;4.18;3.35;;;;;;;;;;5014408;28;20014;-87
2024/01/20 00:40:04;;;;;;;4.47;3.55;;;;;;;;;;5017086;28;20029;-86
2024/01/20 00:42:30;;;;;;;10.50;4.65;;;;;;;;;;5015468;28;20252;-87
2024/01/20 00:44:55;;;;;;;5.18;3.60;;;;;;;;;;5017406;28;20588;-87
2024/01/20 00:47:21;;;;;;;7.20;3.75;;;;;;;;;;5019344;28;20049;-87
2024/01/20 00:49:47;;;;;;;3.22;2.75;;;;;;;;;;5018863;28;20032;-87
2024/01/20 00:52:12;;;;;;;4.82;3.58;;;;;;;;;;5019867;28;20045;-87
2024/01/20 00:54:37;;;;;;;5.35;4.03;;;;;;;;;;5021402;28;20045;-88
2024/01/20 00:57:04;;;;;;;5.28;3.75;;;;;;;;;;5024601;28;20018;-87
2024/01/20 00:59:29;;;;;;;4.78;3.10;;;;;;;;;;5014167;28;20507;-87
2024/01/20 01:01:54;;;;;;;5.90;4.75;;;;;;;;;;5015484;28;20022;-87
2024/01/20 01:04:20;;;;;;;11.63;4.35;;;;;;;;;;5014573;28;20149;-87
2024/01/20 01:06:45;;;;;;;7.35;4.65;;;;;;;;;;5011875;28;20465;-86
2024/01/20 01:09:11;;;;;;;5.93;3.95;;;;;;;;;;5014059;28;20092;-89
2024/01/20 01:11:36;;;;;;;4.90;3.95;;;;;;;;;;5013886;28;20062;-87
2024/01/20 01:14:01;;;;;;;7.80;5.57;;;;;;;;;;5024055;28;20022;-88
2024/01/20 01:16:27;;;;;;;4.35;3.10;;;;;;;;;;5025299;28;20479;-87
2024/01/20 01:18:52;;;;;;;9.68;3.00;;;;;;;;;;5017255;28;20022;-87
2024/01/20 01:21:17;;;;;;;10.25;4.05;;;;;;;;;;5017088;28;20103;-88
2024/01/20 01:23:43;;;;;;;5.70;3.45;;;;;;;;;;5018838;28;20539;-87
2024/01/20 01:26:08;;;;;;;7.63;4.07;;;;;;;;;;5017528;28;20413;-88
2024/01/20 01:28:33;;;;;;;4.95;3.13;;;;;;;;;;5018096;28;20018;-86
2024/01/20 01:30:59;;;;;;;5.30;3.17;;;;;;;;;;5019135;28;20029;-86
2024/01/20 01:33:24;;;;;;;3.17;2.72;;;;;;;;;;5017040;28;20079;-87
2024/01/20 01:35:49;;;;;;;7.32;4.20;;;;;;;;;;5019630;28;20420;-86
2024/01/20 01:38:15;;;;;;;3.80;2.78;;;;;;;;;;5018331;28;20468;-88
2024/01/20 01:40:40;;;;;;;3.35;2.72;;;;;;;;;;5019639;28;20026;-87
2024/01/20 01:43:05;;;;;;;4.63;3.55;;;;;;;;;;5019095;28;20030;-86
2024/01/20 01:45:32;;;;;;;3.63;2.60;;;;;;;;;;5018867;28;20026;-87
2024/01/20 01:47:58;;;;;;;8.40;4.68;;;;;;;;;;5021352;28;20180;-87
2024/01/20 01:50:23;;;;;;;7.55;3.92;;;;;;;;;;5020445;28;20656;-87
2024/01/20 01:52:54;;;;;;;2.75;2.53;;;;;;;;;;5020684;28;20050;-87
2024/01/20 01:55:22;;;;;;;4.10;3.63;;;;;;;;;;5018956;28;20053;-88
2024/01/20 01:57:52;;;;;;;5.15;3.38;;;;;;;;;;5017861;28;20028;-87
2024/01/20 02:00:17;;;;;;;6.45;3.50;;;;;;;;;;5017452;28;20117;-88
2024/01/20 02:02:43;;;;;;;4.63;3.78;;;;;;;;;;5018090;28;20069;-86
2024/01/20 02:05:09;;;;;;;3.55;2.70;;;;;;;;;;5018931;28;20152;-87
2024/01/20 02:07:36;;;;;;;5.57;2.65;;;;;;;;;;5019482;28;20456;-87
2024/01/20 02:10:01;;;;;;;6.88;3.95;;;;;;;;;;5017709;28;20037;-87
2024/01/20 02:12:26;;;;;;;11.45;3.63;;;;;;;;;;5017531;28;20108;-87
2024/01/20 02:14:52;;;;;;;6.85;4.15;;;;;;;;;;5018926;28;20034;-87
2024/01/20 02:17:17;;;;;;;4.10;2.70;;;;;;;;;;5021230;28;20029;-86
2024/01/20 02:19:42;;;;;;;7.82;3.03;;;;;;;;;;5019041;28;20037;-87
2024/01/20 02:22:11;;;;;;;5.90;3.28;;;;;;;;;;5016892;28;20026;-86
2024/01/20 02:24:38;;;;;;;7.60;3.65;;;;;;;;;;5016120;28;20033;-86
2024/01/20 02:27:04;;;;;;;4.10;2.50;;;;;;;;;;5017922;28;20526;-88
2024/01/20 02:29:29;;;;;;;4.38;3.05;;;;;;;;;;5030524;28;20030;-87
2024/01/20 02:31:54;;;;;;;5.63;3.63;;;;;;;;;;5017382;28;20029;-86
2024/01/20 02:34:19;;;;;;;4.45;3.58;;;;;;;;;;5016959;28;20076;-86
2024/01/20 02:36:45;;;;;;;5.25;3.63;;;;;;;;;;5017652;28;20026;-86
2024/01/20 02:39:10;;;;;;;3.42;2.92;;;;;;;;;;5015891;28;20028;-87
2024/01/20 02:41:35;;;;;;;6.13;3.70;;;;;;;;;;5015377;28;20036;-86
2024/01/20 02:44:01;;;;;;;9.85;3.67;;;;;;;;;;5014788;28;20116;-86
2024/01/20 02:46:26;;;;;;;7.70;3.95;;;;;;;;;;5016973;28;20085;-87
2024/01/20 02:48:51;;;;;;;7.63;3.30;;;;;;;;;;5017227;28;20101;-87
2024/01/20 02:51:17;;;;;;;6.43;4.85;;;;;;;;;;5018129;28;20022;-87
2024/01/20 02:53:42;;;;;;;5.63;4.43;;;;;;;;;;5018787;28;20090;-86
2024/01/20 02:56:07;;;;;;;4.68;2.97;;;;;;;;;;5018312;28;20049;-88
2024/01/20 02:58:33;;;;;;;8.57;5.07;;;;;;;;;;5019006;28;20032;-86
2024/01/20 03:01:00;;;;;;;6.78;3.78;;;;;;;;;;5020658;28;20419;-88
2024/01/20 03:03:26;;;;;;;5.75;3.53;;;;;;;;;;5019682;28;20022;-88
2024/01/20 03:05:51;;;;;;;3.78;3.28;;;;;;;;;;5018579;28;20033;-86
2024/01/20 03:08:17;;;;;;;3.80;2.97;;;;;;;;;;5018097;28;20117;-87
2024/01/20 03:10:42;;;;;;;10.27;4.70;;;;;;;;;;5019281;28;20030;-88
2024/01/20 03:13:08;;;;;;;7.15;3.97;;;;;;;;;;5018720;28;20116;-88
2024/01/20 03:15:33;;;;;;;5.88;3.60;;;;;;;;;;5018646;28;20061;-86
2024/01/20 03:17:58;;;;;;;12.48;5.13;;;;;;;;;;5019884;28;20030;-88
2024/01/20 03:20:24;;;;;;;8.75;4.45;;;;;;;;;;5018270;28;20754;-87
2024/01/20 03:22:49;;;;;;;6.50;3.78;;;;;;;;;;5020095;28;20030;-88
2024/01/20 03:25:14;;;;;;;5.03;3.90;;;;;;;;;;5019933;28;20036;-88
2024/01/20 03:27:40;;;;;;;5.80;3.58;;;;;;;;;;5021488;28;20081;-87
2024/01/20 03:30:06;;;;;;;4.88;3.95;;;;;;;;;;5022044;28;20022;-87
2024/01/20 03:32:31;;;;;;;4.65;3.33;;;;;;;;;;5023282;28;20026;-88
2024/01/20 03:34:57;;;;;;;5.47;4.20;;;;;;;;;;5022879;28;20060;-88
2024/01/20 03:37:22;;;;;;;6.88;4.47;;;;;;;;;;5022590;28;20117;-86
2024/01/20 03:39:47;;;;;;;10.30;4.72;;;;;;;;;;5020078;28;20037;-88
2024/01/20 03:42:13;;;;;;;4.85;2.65;;;;;;;;;;5017802;28;20052;-86
2024/01/20 03:44:38;;;;;;;6.10;3.55;;;;;;;;;;5019468;28;20021;-87
2024/01/20 03:47:03;;;;;;;7.22;3.78;;;;;;;;;;5019213;28;20026;-87
2024/01/20 03:49:29;;;;;;;4.50;3.45;;;;;;;;;;5019196;28;20030;-87
2024/01/20 03:51:55;;;;;;;5.15;3.97;;;;;;;;;;5018234;28;20021;-86
2024/01/20 03:54:20;;;;;;;5.72;3.83;;;;;;;;;;5019651;28;20128;-86
2024/01/20 03:56:45;;;;;;;5.32;4.20;;;;;;;;;;5016973;28;20034;-87
2024/01/20 03:59:11;;;;;;;7.38;4.40;;;;;;;;;;5016016;28;20041;-86
2024/01/20 04:01:36;;;;;;;4.68;3.78;;;;;;;;;;5016673;28;20399;-86
2024/01/20 04:04:04;;;;;;;0.73;0.73;;;;;;;;;;5018076;28;20061;-86
2024/01/20 04:06:32;;;;;;;5.70;3.83;;;;;;;;;;5017827;28;20040;-87
2024/01/20 04:08:58;;;;;;;6.85;4.35;;;;;;;;;;5016423;28;20399;-86
2024/01/20 04:11:23;;;;;;;8.43;3.88;;;;;;;;;;5015651;28;20554;-85
2024/01/20 04:13:48;;;;;;;6.25;3.78;;;;;;;;;;5014808;28;20461;-86
2024/01/20 04:16:14;;;;;;;4.18;3.83;;;;;;;;;;5014799;28;20037;-87
2024/01/20 04:18:39;;;;;;;6.22;3.90;;;;;;;;;;5017019;28;20022;-87
2024/01/20 04:21:04;;;;;;;7.38;4.93;;;;;;;;;;5018288;28;20032;-86
2024/01/20 04:23:30;;;;;;;13.82;5.38;;;;;;;;;;5018767;28;20032;-88
2024/01/20 04:25:55;;;;;;;4.30;3.78;;;;;;;;;;5020120;28;20080;-86
2024/01/20 04:28:20;;;;;;;5.93;3.47;;;;;;;;;;5018418;28;20029;-86
2024/01/20 04:30:46;;;;;;;6.47;4.22;;;;;;;;;;5019037;28;20036;-87
2024/01/20 04:33:12;;;;;;;3.83;2.85;;;;;;;;;;5018030;28;20125;-87
2024/01/20 04:35:37;;;;;;;6.80;3.83;;;;;;;;;;5020661;28;20079;-86
2024/01/20 04:38:03;;;;;;;4.93;3.00;;;;;;;;;;5017082;28;20018;-87
2024/01/20 04:40:28;;;;;;;8.55;5.28;;;;;;;;;;5014616;28;20025;-87
2024/01/20 04:42:54;;;;;;;5.95;3.28;;;;;;;;;;5016167;28;20112;-87
2024/01/20 04:45:19;;;;;;;5.32;3.95;;;;;;;;;;5031592;28;20069;-88
2024/01/20 04:47:45;;;;;;;9.13;4.15;;;;;;;;;;5023211;28;20137;-89
2024/01/20 04:50:11;;;;;;;11.13;5.32;;;;;;;;;;5021745;28;20026;-87
2024/01/20 04:52:36;;;;;;;6.75;4.22;;;;;;;;;;5020949;28;20068;-89
2024/01/20 04:55:02;;;;;;;11.00;4.15;;;;;;;;;;5028904;28;20022;-88
2024/01/20 04:57:28;;;;;;;4.93;3.92;;;;;;;;;;5026474;28;20034;-86
2024/01/20 04:59:53;;;;;;;4.30;3.25;;;;;;;;;;5017410;28;20112;-87
2024/01/20 05:02:19;;;;;;;4.65;3.97;;;;;;;;;;5016288;28;20026;-88
2024/01/20 05:04:44;;;;;;;7.07;4.28;;;;;;;;;;5015203;28;20484;-86
2024/01/20 05:07:09;;;;;;;2.08;1.90;;;;;;;;;;5019652;28;20018;-88
2024/01/20 05:09:35;;;;;;;5.25;3.70;;;;;;;;;;5026602;28;20026;-86
2024/01/20 05:12:00;;;;;;;13.57;4.78;;;;;;;;;;5018416;28;20034;-85
2024/01/20 05:14:25;;;;;;;5.30;3.20;;;;;;;;;;5017278;28;20045;-85
2024/01/20 05:16:51;;;;;;;7.65;3.35;;;;;;;;;;5016941;28;20029;-86
2024/01/20 05:19:16;;;;;;;5.47;3.05;;;;;;;;;;5018314;28;20108;-87
2024/01/20 05:21:41;;;;;;;6.57;3.92;;;;;;;;;;5019257;28;20033;-87
2024/01/20 05:24:07;;;;;;;8.23;4.57;;;;;;;;;;5020619;28;20041;-86
2024/01/20 05:26:32;;;;;;;7.10;4.20;;;;;;;;;;5023338;28;20036;-86
2024/01/20 05:28:57;;;;;;;12.70;4.63;;;;;;;;;;5020479;28;20018;-86
2024/01/20 05:31:24;;;;;;;4.90;4.07;;;;;;;;;;5020962;28;20044;-86
2024/01/20 05:33:49;;;;;;;8.60;4.15;;;;;;;;;;5020669;28;20109;-86
2024/01/20 05:36:15;;;;;;;6.13;3.47;;;;;;;;;;5018809;28;20100;-89
2024/01/20 05:38:40;;;;;;;5.90;4.05;;;;;;;;;;5018362;28;20146;-89
2024/01/20 05:41:08;;;;;;;2.85;2.58;;;;;;;;;;5018437;28;20030;-85
2024/01/20 05:43:34;;;;;;;5.72;3.75;;;;;;;;;;5017917;28;20030;-86
2024/01/20 05:46:04;;;;;;;4.10;3.30;;;;;;;;;;5018006;28;20403;-85
2024/01/20 05:48:30;;;;;;;5.97;4.05;;;;;;;;;;5017695;28;20017;-86
2024/01/20 05:50:56;;;;;;;5.82;3.63;;;;;;;;;;5017256;28;20022;-87
2024/01/20 05:53:21;;;;;;;5.55;3.70;;;;;;;;;;5017011;28;20034;-87
2024/01/20 05:55:47;;;;;;;2.97;2.35;;;;;;;;;;5017034;28;20026;-86
2024/01/20 05:58:12;;;;;;;2.47;2.28;;;;;;;;;;5018336;28;20123;-88
2024/01/20 06:00:37;;;;;;;5.30;4.50;;;;;;;;;;5019940;28;20030;-87
2024/01/20 06:03:04;;;;;;;3.40;2.95;;;;;;;;;;5019876;28;20441;-88
2024/01/20 06:05:29;;;;;;;10.85;3.40;;;;;;;;;;5020274;28;20120;-86
2024/01/20 06:07:54;;;;;;;8.95;3.88;;;;;;;;;;5021119;28;20053;-87
2024/01/20 06:10:20;;;;;;;7.05;4.32;;;;;;;;;;5021701;28;20057;-88
2024/01/20 06:12:45;;;;;;;6.10;3.28;;;;;;;;;;5022749;28;20040;-88
2024/01/20 06:15:10;;;;;;;3.63;2.55;;;;;;;;;;5023147;28;20036;-87
2024/01/20 06:17:36;;;;;;;8.75;5.10;;;;;;;;;;5027019;28;20029;-87
2024/01/20 06:20:01;;;;;;;4.38;3.30;;;;;;;;;;5018647;28;20026;-87
2024/01/20 06:22:27;;;;;;;6.05;4.20;;;;;;;;;;5019773;28;20591;-86
2024/01/20 06:24:52;;;;;;;7.75;4.57;;;;;;;;;;5019978;28;20033;-86
2024/01/20 06:27:17;;;;;;;7.00;4.53;;;;;;;;;;5019242;28;20025;-86
2024/01/20 06:29:43;;;;;;;12.82;4.35;;;;;;;;;;5017704;28;20030;-86
2024/01/20 06:32:08;;;;;;;8.90;4.50;;;;;;;;;;5017739;28;20113;-87
2024/01/20 06:34:33;;;;;;;5.78;4.70;;;;;;;;;;5021811;28;20090;-87
2024/01/20 06:36:59;;;;;;;2.85;2.63;;;;;;;;;;5019477;28;20365;-87
2024/01/20 06:39:24;;;;;;;8.23;3.42;;;;;;;;;;5018955;28;20033;-87
2024/01/20 06:41:50;;;;;;;5.10;3.15;;;;;;;;;;5017249;28;20645;-87
2024/01/20 06:44:16;;;;;;;4.68;3.22;;;;;;;;;;5021848;28;20010;-88
2024/01/20 06:46:41;;;;;;;9.35;4.25;;;;;;;;;;5028992;28;20029;-87
2024/01/20 06:49:07;;;;;;;6.32;3.35;;;;;;;;;;5018647;28;20030;-87
2024/01/20 06:51:32;;;;;;;7.32;4.82;;;;;;;;;;5017006;28;20044;-86
2024/01/20 06:53:57;;;;;;;8.63;4.28;;;;;;;;;;5018145;28;20022;-87
2024/01/20 06:56:26;;;;;;;4.22;3.83;;;;;;;;;;5017672;28;20029;-86
2024/01/20 06:58:53;;;;;;;5.80;3.60;;;;;;;;;;5017844;28;20029;-87
2024/01/20 07:01:19;;;;;;;11.20;5.05;;;;;;;;;;5017848;28;20388;-87
2024/01/20 07:03:45;;;;;;;7.15;4.93;;;;;;;;;;5018233;28;20030;-87
2024/01/20 07:06:10;;;;;;;6.05;4.15;;;;;;;;;;5017368;28;20089;-86
2024/01/20 07:08:36;;;;;;;4.57;3.15;;;;;;;;;;5016229;28;20094;-87
2024/01/20 07:11:01;;;;;;;6.97;3.85;;;;;;;;;;5017862;28;20273;-87
2024/01/20 07:13:26;;;;;;;14.43;3.97;;;;;;;;;;5019853;28;20029;-87
2024/01/20 07:15:52;;;;;;;7.68;4.03;;;;;;;;;;5022065;28;20045;-87
2024/01/20 07:18:17;;;;;;;12.65;3.45;;;;;;;;;;5028226;28;20156;-87
2024/01/20 07:20:44;;;;;;;4.65;3.05;;;;;;;;;;5022261;28;20026;-88
2024/01/20 07:23:09;;;;;;;2.78;2.42;;;;;;;;;;5035668;28;20022;-87
2024/01/20 07:25:36;;;;;;;7.82;4.95;;;;;;;;;;5034273;28;20040;-87
2024/01/20 07:28:03;;;;;;;8.18;5.70;;;;;;;;;;5031224;28;20057;-88
2024/01/20 07:30:29;;;;;;;4.85;4.03;;;;;;;;;;5022625;28;20113;-86
2024/01/20 07:32:57;;;;;;;11.40;5.55;;;;;;;;;;5029982;28;20021;-87
2024/01/20 07:35:23;;;;;;;8.63;4.68;;;;;;;;;;5027651;28;20049;-87
2024/01/20 07:37:48;;;;;;;8.65;5.55;;;;;;;;;;5022081;28;20022;-87
2024/01/20 07:40:13;;;;;;;6.13;3.85;;;;;;;;;;5019372;28;20025;-87
2024/01/20 07:42:40;;;;;;;18.42;6.53;;;;;;;;;;5018734;28;20041;-86
2024/01/20 07:45:05;;;;;;;14.18;4.45;;;;;;;;;;5017345;28;20022;-86
2024/01/20 07:47:31;;;;;;;5.43;4.90;;;;;;;;;;5023808;28;20037;-89
2024/01/20 07:49:56;;;;;;;8.57;3.85;;;;;;;;;;5025066;28;20030;-86
2024/01/20 07:52:22;;;;;;;6.95;4.60;;;;;;;;;;5018580;28;20025;-86
2024/01/20 07:54:47;;;;;;;6.57;4.03;;;;;;;;;;5020004;28;20034;-87
2024/01/20 07:57:12;;;;;;;4.28;3.85;;;;;;;;;;5019043;28;20061;-88
2024/01/20 07:59:38;;;;;;;7.75;5.28;;;;;;;;;;5024060;28;20069;-87
2024/01/20 08:02:03;;;;;;;10.48;4.97;;;;;;;;;;5017301;28;20026;-87
2024/01/20 08:04:29;;;;;;;7.15;4.30;;;;;;;;;;5017334;28;20109;-85
2024/01/20 08:06:54;;;;;;;5.68;3.45;;;;;;;;;;5017099;28;20036;-86
2024/01/20 08:09:19;;;;;;;8.27;5.30;;;;;;;;;;5016564;28;20057;-86
2024/01/20 08:11:45;;;;;;;8.40;3.78;;;;;;;;;;5017985;28;20096;-85
2024/01/20 08:14:10;;;;;;;6.15;3.83;;;;;;;;;;5016765;28;20132;-87
2024/01/20 08:16:35;;;;;;;7.80;3.08;;;;;;;;;;5014917;28;20421;-86
2024/01/20 08:19:01;;;;;;;5.82;2.70;;;;;;;;;;5017520;28;20034;-88
2024/01/20 08:21:26;;;;;;;6.05;4.30;;;;;;;;;;5032449;28;20026;-86
2024/01/20 08:23:51;;;;;;;8.40;3.55;;;;;;;;;;5019479;28;20025;-86
2024/01/20 08:26:17;;;;;;;7.32;4.13;;;;;;;;;;5018840;28;20037;-86
2024/01/20 08:28:42;;;;;;;5.72;3.05;;;;;;;;;;5018524;28;20017;-85
2024/01/20 08:31:08;;;;;;;4.78;3.60;;;;;;;;;;5018372;28;20540;-89
2024/01/20 08:33:33;;;;;;;7.13;3.95;;;;;;;;;;5017962;28;20093;-86
2024/01/20 08:35:59;;;;;;;10.20;8.52;;;;;;;;;;5019369;28;20018;-86
2024/01/20 08:38:24;;;;;;;13.73;4.82;;;;;;;;;;5020216;28;20014;-86
2024/01/20 08:40:49;;;;;;;7.03;2.85;;;;;;;;;;5019416;28;20404;-87
2024/01/20 08:43:15;;;;;;;2.63;2.10;;;;;;;;;;5017898;28;20026;-87
2024/01/20 08:45:41;;;;;;;5.80;4.93;;;;;;;;;;5017819;28;20033;-88
2024/01/20 08:48:07;;;;;;;7.30;4.82;;;;;;;;;;5018490;28;20401;-87
2024/01/20 08:50:32;;;;;;;9.27;4.45;;;;;;;;;;5021051;28;20026;-87
2024/01/20 08:52:57;;;;;;;4.35;3.35;;;;;;;;;;5020437;28;20404;-87
2024/01/20 08:55:23;;;;;;;3.80;2.92;;;;;;;;;;5019101;28;20034;-85
2024/01/20 08:57:48;;;;;;;6.18;2.88;;;;;;;;;;5017920;28;20022;-86
2024/01/20 09:00:16;;;;;;;8.85;5.57;;;;;;;;;;5017028;28;20026;-85
2024/01/20 09:02:42;;;;;;;6.78;4.85;;;;;;;;;;5016269;28;20545;-87
2024/01/20 09:05:08;;;;;;;7.35;5.00;;;;;;;;;;5013499;28;20022;-85
2024/01/20 09:07:33;;;;;;;8.73;5.85;;;;;;;;;;5015158;28;20103;-87
2024/01/20 09:09:58;;;;;;;6.53;4.70;;;;;;;;;;5014167;28;20033;-86
2024/01/20 09:12:24;;;;;;;5.13;4.28;;;;;;;;;;5014822;28;20112;-87
2024/01/20 09:14:49;;;;;;;9.48;5.10;;;;;;;;;;5016359;28;20026;-85
2024/01/20 09:17:15;;;;;;;6.10;4.80;;;;;;;;;;5017130;28;20037;-87
2024/01/20 09:19:40;;;;;;;5.95;4.22;;;;;;;;;;5016973;28;20476;-86
2024/01/20 09:22:06;;;;;;;12.50;5.68;;;;;;;;;;5016769;28;20128;-89
2024/01/20 09:24:31;;;;;;;10.77;5.65;;;;;;;;;;5016448;28;20090;-86
2024/01/20 09:26:56;;;;;;;7.43;4.10;;;;;;;;;;5016035;28;20058;-86
2024/01/20 09:29:22;;;;;;;8.93;6.20;;;;;;;;;;5015080;28;20022;-87
2024/01/20 09:31:48;;;;;;;15.05;5.15;;;;;;;;;;5015409;28;20037;-86
2024/01/20 09:34:13;;;;;;;6.22;3.72;;;;;;;;;;5017246;28;20026;-89
2024/01/20 09:36:41;;;;;;;11.25;7.25;;;;;;;;;;5015755;28;20487;-87
2024/01/20 09:39:11;;;;;;;10.00;6.25;;;;;;;;;;5015797;28;20502;-88
2024/01/20 09:41:36;;;;;;;6.68;4.82;;;;;;;;;;5015882;28;20060;-87
2024/01/20 09:44:02;;;;;;;15.13;6.35;;;;;;;;;;5015592;28;20030;-89
2024/01/20 09:46:28;;;;;;;12.50;7.63;;;;;;;;;;5016301;28;20026;-88
2024/01/20 09:48:56;;;;;;;11.30;7.05;;;;;;;;;;5015487;28;20404;-88
2024/01/20 09:51:24;;;;;;;12.50;5.95;;;;;;;;;;5015960;28;20108;-87
2024/01/20 09:53:54;;;;;;;11.32;5.72;;;;;;;;;;5016942;28;20029;-87
2024/01/20 09:56:20;;;;;;;9.32;5.15;;;;;;;;;;5016164;28;20113;-86
2024/01/20 09:58:47;;;;;;;13.93;7.45;;;;;;;;;;5016111;28;20057;-87
2024/01/20 10:01:12;;;;;;;11.38;6.38;;;;;;;;;;5016003;28;20033;-87
2024/01/20 10:03:40;;;;;;;10.75;4.95;;;;;;;;;;5015541;28;20030;-87
2024/01/20 10:06:05;;;;;;;8.60;5.70;;;;;;;;;;5018018;28;20061;-87
2024/01/20 10:08:31;;;;;;;5.70;4.75;;;;;;;;;;5019868;28;20029;-86
2024/01/20 10:11:03;;;;;;;10.68;6.28;;;;;;;;;;5020775;28;20152;-88
2024/01/20 10:13:29;;;;;;;8.63;6.05;;;;;;;;;;5019536;28;20022;-87
2024/01/20 10:15:54;;;;;;;4.30;3.80;;;;;;;;;;5019617;28;20030;-87
2024/01/20 10:18:20;;;;;;;6.72;4.90;;;;;;;;;;5020583;28;20033;-88
2024/01/20 10:20:45;;;;;;;13.27;5.15;;;;;;;;;;5019319;28;20066;-87
2024/01/20 10:23:10;;;;;;;12.50;7.53;;;;;;;;;;5020115;28;20042;-86
2024/01/20 10:25:36;;;;;;;10.82;6.80;;;;;;;;;;5021994;28;20034;-86
2024/01/20 10:28:01;;;;;;;7.43;5.13;;;;;;;;;;5027761;28;20166;-87
2024/01/20 10:30:28;;;;;;;8.32;6.35;;;;;;;;;;5020342;28;20036;-87
2024/01/20 10:32:53;;;;;;;10.07;5.28;;;;;;;;;;5020855;28;20053;-86
2024/01/20 10:35:19;;;;;;;7.03;3.72;;;;;;;;;;5019953;28;20026;-85
2024/01/20 10:37:46;;;;;;;14.60;6.30;;;;;;;;;;5022508;28;20014;-87
2024/01/20 10:40:14;;;;;;;9.43;5.03;;;;;;;;;;5017010;28;20381;-85
2024/01/20 10:42:45;;;;;;;9.77;6.03;;;;;;;;;;5018104;28;20040;-86
2024/01/20 10:45:17;;;;;;;9.93;5.03;;;;;;;;;;5018898;28;20032;-87
2024/01/20 10:48:06;;;;;;;9.27;5.60;;;;;;;;;;5020746;28;20419;-85
2024/01/20 10:50:35;;;;;;;10.68;8.00;;;;;;;;;;5009940;28;20109;-85
2024/01/20 10:53:02;;;;;;;9.15;4.18;;;;;;;;;;5022296;28;20026;-85
2024/01/20 10:55:28;;;;;;;10.68;6.47;;;;;;;;;;5023828;28;20109;-87
2024/01/20 10:57:55;;;;;;;7.15;4.72;;;;;;;;;;5023917;28;20026;-85
2024/01/20 11:00:21;;;;;;;11.13;6.22;;;;;;;;;;5019913;28;20021;-86
2024/01/20 11:02:47;;;;;;;11.65;6.80;;;;;;;;;;5022060;28;20041;-86
2024/01/20 11:05:22;;;;;;;9.23;5.10;;;;;;;;;;5021521;28;20372;-86
2024/01/20 11:08:24;;;;;;;3.55;3.15;;;;;;;;;;5020406;28;20037;-86
2024/01/20 11:10:52;;;;;;;12.07;6.43;;;;;;;;;;5010353;28;20509;-86
2024/01/20 11:13:17;;;;;;;17.65;7.57;;;;;;;;;;5020022;28;20370;-86
2024/01/20 11:15:49;;;;;;;14.27;6.85;;;;;;;;;;5019295;28;20032;-86
2024/01/20 11:18:18;;;;;;;11.60;7.22;;;;;;;;;;5016832;28;20034;-86
2024/01/20 11:20:56;;;;;;;10.38;6.28;;;;;;;;;;5016511;28;20415;-85
2024/01/20 11:23:21;;;;;;;16.58;8.32;;;;;;;;;;5018861;28;20036;-87
2024/01/20 11:25:47;;;;;;;7.18;4.13;;;;;;;;;;5019709;28;20045;-87
2024/01/20 11:28:22;;;;;;;15.20;8.77;;;;;;;;;;5018096;28;20029;-85
2024/01/20 11:30:47;;;;;;;10.57;7.65;;;;;;;;;;5015413;28;20117;-85
2024/01/20 11:33:15;;;;;;;12.73;7.60;;;;;;;;;;5018027;28;20065;-86
2024/01/20 11:35:41;;;;;;;11.75;7.10;;;;;;;;;;5017204;28;20018;-87
2024/01/20 11:38:07;;;;;;;15.25;7.88;;;;;;;;;;5017025;28;20117;-86
2024/01/20 11:40:32;;;;;;;14.45;7.88;;;;;;;;;;5016301;28;20025;-85
2024/01/20 11:43:10;;;;;;;18.15;7.85;;;;;;;;;;5015521;28;20072;-86
2024/01/20 11:45:35;;;;;;;11.93;7.20;;;;;;;;;;5016938;28;20021;-86
2024/01/20 11:48:00;;;;;;;11.30;5.55;;;;;;;;;;5017629;28;20419;-86
2024/01/20 11:50:26;;;;;;;13.52;7.72;;;;;;;;;;5017396;28;20021;-86
2024/01/20 11:52:52;;;;;;;9.90;5.20;;;;;;;;;;5021998;28;20033;-87
2024/01/20 11:55:17;;;;;;;12.55;6.57;;;;;;;;;;5027478;28;20041;-83
2024/01/20 11:57:43;;;;;;;16.48;8.15;;;;;;;;;;5018995;28;20034;-87
2024/01/20 12:00:10;;;;;;;12.05;5.72;;;;;;;;;;5018404;28;20500;-86
2024/01/20 12:02:36;;;;;;;9.93;4.97;;;;;;;;;;5014432;28;20026;-86
2024/01/20 12:05:01;;;;;;;11.90;7.10;;;;;;;;;;5013938;28;20117;-86
2024/01/20 12:07:27;;;;;;;8.32;5.13;;;;;;;;;;5015515;28;20045;-86
2024/01/20 12:09:53;;;;;;;11.55;5.65;;;;;;;;;;5015481;28;20092;-87
2024/01/20 12:12:19;;;;;;;7.18;4.47;;;;;;;;;;5016961;28;20277;-87
2024/01/20 12:14:45;;;;;;;7.68;5.63;;;;;;;;;;5016326;28;20041;-86
2024/01/20 12:17:11;;;;;;;5.15;4.35;;;;;;;;;;5016468;28;20030;-87
2024/01/20 12:19:40;;;;;;;6.15;3.90;;;;;;;;;;5015835;28;20021;-86
2024/01/20 12:22:11;;;;;;;10.40;6.40;;;;;;;;;;5014334;28;20041;-85
2024/01/20 12:24:37;;;;;;;;;;;;;;;;;;5013410;28;20044;-85
2024/01/20 12:27:04;;;;;;;7.82;5.53;;;;;;;;;;5016949;28;20380;-86
2024/01/20 12:29:29;;;;;;;7.57;5.20;;;;;;;;;;5015198;28;20034;-86
2024/01/20 12:31:59;;;;;;;9.70;5.82;;;;;;;;;;5015093;28;20036;-86
2024/01/20 12:34:27;;;;;;;13.93;6.40;;;;;;;;;;5014656;28;20053;-86
2024/01/20 12:36:56;;;;;;;13.45;9.18;;;;;;;;;;5017053;28;20448;-86
2024/01/20 12:39:25;;;;;;;15.13;6.32;;;;;;;;;;5014899;28;20037;-87
2024/01/20 12:41:52;;;;;;;7.78;4.75;;;;;;;;;;5015423;28;20026;-87
2024/01/20 12:44:18;;;;;;;6.32;5.18;;;;;;;;;;5017508;28;20033;-86
2024/01/20 12:46:44;;;;;;;8.85;4.88;;;;;;;;;;5016492;28;20377;-86
2024/01/20 12:49:09;;;;;;;10.07;6.00;;;;;;;;;;5015874;28;20156;-86
2024/01/20 12:51:35;;;;;;;13.73;7.68;;;;;;;;;;5018082;28;20069;-87
2024/01/20 12:54:01;;;;;;;12.20;7.38;;;;;;;;;;5016852;28;20025;-86
2024/01/20 12:56:26;;;;;;;13.98;7.13;;;;;;;;;;5016312;28;20052;-88
2024/01/20 12:58:52;;;;;;;10.38;6.00;;;;;;;;;;5018285;28;20022;-86
2024/01/20 13:01:18;;;;;;;11.25;6.07;;;;;;;;;;5016942;28;20048;-86
2024/01/20 13:03:43;;;;;;;9.82;5.60;;;;;;;;;;5020253;28;20022;-87
2024/01/20 13:06:09;;;;;;;14.82;7.53;;;;;;;;;;5021527;28;20049;-89
2024/01/20 13:08:34;;;;;;;14.15;6.18;;;;;;;;;;5018196;28;20036;-87
2024/01/20 13:10:59;;;;;;;11.35;6.53;;;;;;;;;;5017599;28;20093;-86
2024/01/20 13:13:25;;;;;;;12.30;6.40;;;;;;;;;;5016289;28;20112;-87
2024/01/20 13:15:50;;;;;;;12.95;7.07;;;;;;;;;;5017191;28;20033;-87
2024/01/20 13:18:16;;;;;;;8.57;5.38;;;;;;;;;;5017990;28;20041;-86
2024/01/20 13:20:41;;;;;;;12.38;7.28;;;;;;;;;;5017020;28;20092;-88
2024/01/20 13:23:06;;;;;;;7.18;5.28;;;;;;;;;;5016636;28;20081;-86
2024/01/20 13:25:32;;;;;;;9.23;5.30;;;;;;;;;;5017025;28;20036;-86
2024/01/20 13:27:57;;;;;;;8.70;6.22;;;;;;;;;;5016515;28;20033;-87
2024/01/20 13:30:22;;;;;;;10.65;5.00;;;;;;;;;;5016986;28;20033;-87
2024/01/20 13:32:48;;;;;;;19.27;7.63;;;;;;;;;;5020662;28;20045;-86
2024/01/20 13:35:14;;;;;;;10.10;6.60;;;;;;;;;;5024145;28;20052;-85
2024/01/20 13:37:39;;;;;;;10.07;4.97;;;;;;;;;;5012988;28;20022;-88
2024/01/20 13:40:05;;;;;;;11.65;5.35;;;;;;;;;;5013161;28;20695;-88
2024/01/20 13:42:31;;;;;;;14.35;7.28;;;;;;;;;;5013226;28;20144;-87
2024/01/20 13:44:56;;;;;;;11.63;6.57;;;;;;;;;;5018832;28;20025;-89
2024/01/20 13:47:22;;;;;;;10.95;5.45;;;;;;;;;;5026855;28;20038;-87
2024/01/20 13:49:47;;;;;;;8.80;5.18;;;;;;;;;;5017354;28;20059;-87
2024/01/20 13:52:12;;;;;;;11.80;6.57;;;;;;;;;;5016086;28;20022;-86
2024/01/20 13:54:38;;;;;;;8.75;5.43;;;;;;;;;;5021224;28;20030;-86
2024/01/20 13:57:03;;;;;;;11.45;6.88;;;;;;;;;;5031481;28;20033;-88
2024/01/20 13:59:28;;;;;;;10.40;5.32;;;;;;;;;;5037622;28;20030;-86
2024/01/20 14:01:55;;;;;;;19.73;6.10;;;;;;;;;;5035768;28;20018;-86
2024/01/20 14:04:24;;;;;;;8.13;4.18;;;;;;;;;;5038912;28;20109;-88
2024/01/20 14:06:49;;;;;;;8.00;5.20;;;;;;;;;;5046182;28;20369;-87
2024/01/20 14:09:14;;;;;;;12.98;6.63;;;;;;;;;;5038172;28;20042;-88
2024/01/20 14:11:40;;;;;;;14.75;6.97;;;;;;;;;;5039393;28;20025;-87
2024/01/20 14:14:05;;;;;;;7.30;4.38;;;;;;;;;;5037955;28;20017;-86
2024/01/20 14:16:30;;;;;;;8.27;3.97;;;;;;;;;;5029778;28;20048;-86
2024/01/20 14:18:57;;;;;;;13.13;5.30;;;;;;;;;;5027007;28;20026;-86
2024/01/20 14:21:23;;;;;;;11.88;5.47;;;;;;;;;;5039765;28;20030;-86
2024/01/20 14:23:49;;;;;;;12.43;6.65;;;;;;;;;;5021286;28;20114;-87
2024/01/20 14:26:14;;;;;;;8.88;5.82;;;;;;;;;;5023290;28;20037;-87
2024/01/20 14:28:39;;;;;;;13.30;7.13;;;;;;;;;;5022622;28;20430;-85
2024/01/20 14:31:05;;;;;;;16.90;5.55;;;;;;;;;;5023557;28;20021;-86
2024/01/20 14:33:30;;;;;;;7.15;5.15;;;;;;;;;;5020083;28;20026;-87